Time;durP1;ratioP1;P1;durP2;ratioP2;P2;SDS_P1;SDS_P2;PMS_P1;PMS_P2;Temp;Humidity;BMP_temperature;BMP_pressure;BME280_temperature;BME280_humidity;BME280_pressure;Samples;Min_cycle;Max_cycle;Signal;HPM_P1;HPM_P2
2021/08/06 00:00:07;;;;;;;15.60;8.40;;;27.70;65.20;;;;;;4181902;28;20060;-64
2021/08/06 00:02:09;;;;;;;12.10;8.75;;;27.70;65.30;;;;;;4181672;28;20075;-64
2021/08/06 00:04:11;;;;;;;13.85;8.40;;;27.70;65.30;;;;;;4181764;28;20130;-64
2021/08/06 00:06:13;;;;;;;14.25;8.20;;;27.60;65.30;;;;;;4181640;28;20085;-64
2021/08/06 00:08:15;;;;;;;10.60;7.75;;;27.70;65.40;;;;;;4181526;28;20052;-64
2021/08/06 00:10:17;;;;;;;12.95;7.95;;;27.70;65.40;;;;;;4181537;28;20466;-64
2021/08/06 00:12:19;;;;;;;10.55;7.43;;;27.70;65.30;;;;;;4181483;28;20052;-64
2021/08/06 00:14:21;;;;;;;12.55;8.73;;;27.60;65.40;;;;;;4181600;28;20071;-64
2021/08/06 00:16:24;;;;;;;13.18;7.47;;;27.60;65.40;;;;;;4181659;28;20049;-64
2021/08/06 00:18:26;;;;;;;13.20;8.25;;;27.60;65.30;;;;;;4181441;28;20105;-64
2021/08/06 00:20:28;;;;;;;11.63;7.60;;;27.60;65.30;;;;;;4181433;28;20046;-64
2021/08/06 00:22:30;;;;;;;12.38;8.35;;;27.70;65.40;;;;;;4181501;28;20071;-48
2021/08/06 00:24:32;;;;;;;15.73;8.55;;;27.60;65.30;;;;;;4181888;28;20075;-53
2021/08/06 00:26:34;;;;;;;14.55;8.55;;;27.60;65.40;;;;;;4181901;28;20059;-51
2021/08/06 00:28:36;;;;;;;18.98;8.73;;;27.60;65.30;;;;;;4181792;28;20045;-49
2021/08/06 00:30:39;;;;;;;11.32;7.30;;;27.60;65.30;;;;;;4181771;28;20046;-60
2021/08/06 00:32:41;;;;;;;14.27;7.93;;;27.60;65.30;;;;;;4181275;28;20046;-60
2021/08/06 00:34:43;;;;;;;11.85;7.95;;;27.60;65.30;;;;;;4181405;28;20045;-59
2021/08/06 00:36:45;;;;;;;13.65;8.45;;;27.70;65.30;;;;;;4181507;28;20053;-59
2021/08/06 00:38:47;;;;;;;14.00;8.48;;;27.60;65.40;;;;;;4181428;28;20049;-59
2021/08/06 00:40:49;;;;;;;18.00;8.68;;;27.60;65.30;;;;;;4183881;28;20056;-50
2021/08/06 00:42:51;;;;;;;12.85;7.90;;;27.60;65.30;;;;;;4184610;28;20057;-52
2021/08/06 00:44:53;;;;;;;13.30;8.07;;;27.60;65.30;;;;;;4184344;28;20054;-53
2021/08/06 00:46:56;;;;;;;13.30;7.93;;;27.60;65.30;;;;;;4184343;28;20045;-63
2021/08/06 00:48:58;;;;;;;12.88;8.50;;;27.60;65.30;;;;;;4184363;28;20045;-63
2021/08/06 00:51:00;;;;;;;13.20;8.27;;;27.60;65.40;;;;;;4184241;28;20052;-63
2021/08/06 00:53:02;;;;;;;12.00;8.32;;;27.60;65.30;;;;;;4184236;28;20052;-63
2021/08/06 00:55:06;;;;;;;11.25;7.93;;;27.60;65.40;;;;;;4184226;28;20075;-63
2021/08/06 00:57:15;;;;;;;12.63;8.55;;;27.60;65.40;;;;;;4184150;28;20049;-63
2021/08/06 00:59:17;;;;;;;13.85;8.35;;;27.60;65.50;;;;;;4182954;28;20105;-63
2021/08/06 01:01:20;;;;;;;13.40;8.27;;;27.60;65.50;;;;;;4183349;28;20053;-63
2021/08/06 01:03:27;;;;;;;12.80;8.25;;;27.60;65.60;;;;;;4184203;28;20060;-63
2021/08/06 01:05:36;;;;;;;11.90;8.55;;;27.60;65.60;;;;;;4184165;28;20156;-61
2021/08/06 01:07:46;;;;;;;15.88;8.55;;;27.60;65.60;;;;;;4183909;28;20046;-62
2021/08/06 01:10:01;;;;;;;14.10;8.30;;;27.60;65.70;;;;;;4183904;28;20049;-61
2021/08/06 01:12:09;;;;;;;19.13;8.90;;;27.60;65.70;;;;;;4184131;28;20046;-61
2021/08/06 01:14:16;;;;;;;11.13;8.95;;;27.60;65.70;;;;;;4184468;28;20045;-49
2021/08/06 01:16:19;;;;;;;15.20;8.85;;;27.60;65.60;;;;;;4184692;28;20045;-48
2021/08/06 01:18:22;;;;;;;14.10;8.27;;;27.60;65.70;;;;;;4184615;28;20049;-47
2021/08/06 01:20:38;;;;;;;13.40;8.17;;;27.60;65.70;;;;;;4184463;28;20056;-47
2021/08/06 01:22:54;;;;;;;14.25;8.90;;;27.60;65.80;;;;;;4184464;28;20361;-49
2021/08/06 01:25:06;;;;;;;14.40;7.70;;;27.60;65.80;;;;;;4184415;28;20053;-51
2021/08/06 01:27:10;;;;;;;15.07;8.43;;;27.60;65.80;;;;;;4184351;28;20049;-50
2021/08/06 01:29:12;;;;;;;15.07;8.52;;;27.60;65.80;;;;;;4184563;28;20069;-52
2021/08/06 01:31:21;;;;;;;11.65;8.48;;;27.60;65.90;;;;;;4184413;28;20041;-47
2021/08/06 01:33:23;;;;;;;11.23;8.85;;;27.50;65.90;;;;;;4184357;28;20050;-43
2021/08/06 01:35:25;;;;;;;15.90;8.38;;;27.60;65.90;;;;;;4184323;28;20042;-43
2021/08/06 01:37:27;;;;;;;18.17;9.50;;;27.60;65.90;;;;;;4184525;28;20109;-45
2021/08/06 01:39:29;;;;;;;16.13;8.82;;;27.60;65.90;;;;;;4184351;28;20049;-43
2021/08/06 01:41:39;;;;;;;15.02;9.38;;;27.60;65.90;;;;;;4184356;28;20052;-42
2021/08/06 01:44:12;;;;;;;15.20;8.98;;;27.50;66.00;;;;;;4184035;28;20061;-43
2021/08/06 01:46:40;;;;;;;13.77;9.05;;;27.60;66.10;;;;;;4184096;28;20087;-48
2021/08/06 01:48:47;;;;;;;16.55;9.15;;;27.60;66.20;;;;;;4183836;28;20106;-47
2021/08/06 01:50:50;;;;;;;16.48;10.18;;;27.60;66.30;;;;;;4183745;28;20049;-46
2021/08/06 01:53:08;;;;;;;16.23;9.55;;;27.60;66.40;;;;;;4183033;28;20046;-49
2021/08/06 01:55:13;;;;;;;12.23;8.77;;;27.60;66.40;;;;;;4183836;28;20041;-48
2021/08/06 01:57:15;;;;;;;18.45;9.65;;;27.50;66.50;;;;;;4183763;28;20045;-46
2021/08/06 01:59:17;;;;;;;15.93;11.82;;;27.50;66.50;;;;;;4183785;28;20071;-48
2021/08/06 02:01:20;;;;;;;15.15;10.70;;;27.50;66.60;;;;;;4183128;28;20054;-59
2021/08/06 02:03:22;;;;;;;22.15;11.65;;;27.50;66.60;;;;;;4183204;28;20053;-59
2021/08/06 02:05:26;;;;;;;22.33;13.10;;;27.50;66.60;;;;;;4183183;28;20520;-59
2021/08/06 02:07:28;;;;;;;26.63;12.27;;;27.50;66.60;;;;;;4182980;28;20052;-58
2021/08/06 02:09:30;;;;;;;19.40;11.95;;;27.50;66.60;;;;;;4183195;28;20045;-64
2021/08/06 02:11:32;;;;;;;18.45;11.15;;;27.50;66.50;;;;;;4183088;28;20088;-62
2021/08/06 02:13:36;;;;;;;21.80;11.82;;;27.60;66.40;;;;;;4182841;28;20218;-61
2021/08/06 02:15:41;;;;;;;15.80;10.03;;;27.60;66.20;;;;;;4183024;28;20101;-61
2021/08/06 02:17:45;;;;;;;14.23;10.32;;;27.70;66.20;;;;;;4182965;28;20049;-63
2021/08/06 02:19:50;;;;;;;13.88;10.38;;;27.70;66.20;;;;;;4183156;28;20049;-52
2021/08/06 02:21:57;;;;;;;13.60;9.07;;;27.70;66.30;;;;;;4183105;28;20053;-51
2021/08/06 02:24:09;;;;;;;16.83;11.05;;;27.60;66.40;;;;;;4183225;28;20143;-47
2021/08/06 02:26:12;;;;;;;20.10;11.73;;;27.60;66.60;;;;;;4182771;28;20075;-58
2021/08/06 02:28:14;;;;;;;14.35;12.50;;;27.60;66.70;;;;;;4182676;28;20056;-58
2021/08/06 02:30:19;;;;;;;22.20;17.75;;;27.50;66.70;;;;;;4182732;28;20049;-58
2021/08/06 02:32:22;;;;;;;27.20;18.67;;;27.50;66.90;;;;;;4182549;28;20041;-58
2021/08/06 02:34:25;;;;;;;21.90;14.05;;;27.50;67.00;;;;;;4165466;28;20053;-58
2021/08/06 02:36:27;;;;;;;19.23;13.32;;;27.50;67.10;;;;;;4182747;28;20315;-59
2021/08/06 02:38:29;;;;;;;18.77;12.50;;;27.50;67.00;;;;;;4182736;28;20045;-59
2021/08/06 02:40:31;;;;;;;21.73;15.05;;;27.50;67.00;;;;;;4182542;28;20060;-58
2021/08/06 02:42:35;;;;;;;18.40;12.68;;;27.50;67.10;;;;;;4182255;28;20108;-55
2021/08/06 02:44:38;;;;;;;14.88;11.75;;;27.50;67.20;;;;;;4149034;28;20082;-58
2021/08/06 02:46:41;;;;;;;22.60;13.43;;;27.50;67.20;;;;;;4182762;28;20119;-50
2021/08/06 02:48:43;;;;;;;16.02;11.75;;;27.50;67.30;;;;;;4182913;28;20124;-45
2021/08/06 02:50:45;;;;;;;18.30;10.50;;;27.50;67.40;;;;;;4182948;28;20049;-58
2021/08/06 02:52:47;;;;;;;20.48;10.77;;;27.50;67.40;;;;;;4182351;28;20128;-58
2021/08/06 02:54:49;;;;;;;15.93;11.10;;;27.40;67.50;;;;;;4182220;28;20080;-49
2021/08/06 02:56:51;;;;;;;18.25;11.82;;;27.50;67.50;;;;;;4183116;28;20049;-46
2021/08/06 02:58:54;;;;;;;15.85;10.52;;;27.40;67.60;;;;;;4183007;28;20108;-50
2021/08/06 03:00:56;;;;;;;15.38;11.50;;;27.50;67.50;;;;;;4183021;28;20045;-46
2021/08/06 03:02:58;;;;;;;15.38;9.82;;;27.40;67.50;;;;;;4182734;28;20049;-46
2021/08/06 03:05:00;;;;;;;12.10;8.40;;;27.40;67.30;;;;;;4182892;28;20057;-44
2021/08/06 03:07:02;;;;;;;18.52;10.45;;;27.50;66.80;;;;;;4182812;28;20059;-46
2021/08/06 03:09:04;;;;;;;14.23;9.15;;;27.40;66.20;;;;;;4182723;28;20041;-47
2021/08/06 03:11:06;;;;;;;11.75;8.50;;;27.40;65.70;;;;;;4182828;28;20053;-45
2021/08/06 03:13:08;;;;;;;18.45;10.20;;;27.40;65.40;;;;;;4182729;28;20060;-47
2021/08/06 03:15:11;;;;;;;10.55;6.75;;;27.40;65.00;;;;;;4182717;28;20109;-45
2021/08/06 03:17:13;;;;;;;14.18;7.05;;;27.40;64.70;;;;;;4182752;28;20045;-51
2021/08/06 03:19:14;;;;;;;11.65;6.70;;;27.40;64.60;;;;;;4182560;28;20056;-46
2021/08/06 03:21:17;;;;;;;14.18;7.20;;;27.40;64.50;;;;;;4182681;28;20046;-47
2021/08/06 03:23:19;;;;;;;15.07;9.35;;;27.40;64.30;;;;;;4182860;28;20042;-50
2021/08/06 03:25:21;;;;;;;10.05;7.82;;;27.40;64.00;;;;;;4182534;28;20041;-50
2021/08/06 03:27:23;;;;;;;13.63;7.57;;;27.40;64.00;;;;;;4182298;28;20050;-53
2021/08/06 03:29:25;;;;;;;14.27;8.43;;;27.40;63.90;;;;;;4181950;28;20049;-54
2021/08/06 03:31:27;;;;;;;14.45;7.57;;;27.40;63.90;;;;;;4181926;28;20071;-55
2021/08/06 03:33:29;;;;;;;15.48;7.63;;;27.40;63.80;;;;;;4182070;28;20041;-54
2021/08/06 03:35:31;;;;;;;11.80;6.82;;;27.40;63.80;;;;;;4181812;28;20045;-51
2021/08/06 03:37:34;;;;;;;10.23;6.15;;;27.40;63.70;;;;;;4181798;28;20084;-54
2021/08/06 03:39:36;;;;;;;13.48;7.35;;;27.40;63.60;;;;;;4181784;28;20472;-54
2021/08/06 03:41:38;;;;;;;18.80;7.95;;;27.40;63.70;;;;;;4181811;28;20103;-54
2021/08/06 03:43:40;;;;;;;12.52;7.43;;;27.40;63.70;;;;;;4182152;28;20057;-47
2021/08/06 03:45:42;;;;;;;15.40;8.77;;;27.40;63.60;;;;;;4182069;28;20052;-52
2021/08/06 03:47:44;;;;;;;13.50;9.18;;;27.40;63.50;;;;;;4181313;28;20049;-54
2021/08/06 03:49:47;;;;;;;14.13;7.20;;;27.40;63.40;;;;;;4189243;28;20058;-51
2021/08/06 03:51:49;;;;;;;11.70;7.47;;;27.40;63.40;;;;;;4181624;28;20041;-55
2021/08/06 03:53:51;;;;;;;8.60;6.28;;;27.40;63.30;;;;;;4181964;28;20056;-52
2021/08/06 03:55:53;;;;;;;10.20;6.20;;;27.40;63.30;;;;;;4198395;28;20045;-51
2021/08/06 03:57:57;;;;;;;13.60;7.03;;;27.40;63.20;;;;;;4198174;28;20045;-53
2021/08/06 03:59:58;;;;;;;12.00;5.78;;;27.40;63.20;;;;;;4198199;28;20053;-55
2021/08/06 04:02:01;;;;;;;12.68;6.28;;;27.40;63.20;;;;;;4198133;28;20052;-56
2021/08/06 04:04:03;;;;;;;11.50;5.43;;;27.40;63.30;;;;;;4198146;28;20071;-56
2021/08/06 04:06:05;;;;;;;11.27;6.28;;;27.40;63.40;;;;;;4198238;28;20063;-56
2021/08/06 04:08:09;;;;;;;7.88;6.03;;;27.40;63.40;;;;;;4198091;28;20044;-56
2021/08/06 04:22:52;;;;;;;16.63;6.40;;;27.40;63.50;;;;;;4247487;27;20389;-57
2021/08/06 04:24:54;;;;;;;13.18;6.38;;;27.20;64.50;;;;;;4247431;28;20151;-57
2021/08/06 04:26:56;;;;;;;14.88;6.95;;;26.90;65.40;;;;;;4247374;28;20044;-57
2021/08/06 04:28:59;;;;;;;17.63;6.85;;;26.80;65.50;;;;;;4247335;28;20107;-57
2021/08/06 04:31:04;;;;;;;14.40;6.47;;;26.70;66.00;;;;;;4247278;28;20044;-57
2021/08/06 04:33:06;;;;;;;16.00;7.07;;;26.70;66.00;;;;;;4247356;28;20043;-57
2021/08/06 04:35:08;;;;;;;22.20;6.95;;;26.70;66.60;;;;;;4247321;28;20050;-57
2021/08/06 04:37:12;;;;;;;18.05;6.68;;;26.70;66.60;;;;;;4247234;28;20047;-56
2021/08/06 04:39:14;;;;;;;14.23;6.93;;;26.70;66.50;;;;;;4247227;28;20050;-57
2021/08/06 04:41:16;;;;;;;18.83;7.30;;;26.80;66.30;;;;;;4247189;28;20055;-58
2021/08/06 04:43:21;;;;;;;18.17;6.68;;;26.70;66.30;;;;;;4247197;28;20048;-57
2021/08/06 04:45:23;;;;;;;15.35;6.60;;;26.60;66.50;;;;;;4247078;28;20054;-57
2021/08/06 04:47:25;;;;;;;10.13;7.80;;;26.60;66.20;;;;;;4246630;28;20073;-62
2021/08/06 04:49:27;;;;;;;18.70;7.40;;;26.60;66.50;;;;;;4245535;28;20069;-58
2021/08/06 04:51:29;;;;;;;11.27;6.90;;;26.60;66.80;;;;;;4245752;28;20043;-63
2021/08/06 04:53:34;;;;;;;18.25;7.60;;;26.80;66.40;;;;;;4246844;28;20043;-64
2021/08/06 04:55:36;;;;;;;13.73;8.60;;;26.80;66.10;;;;;;4246537;28;20073;-63
2021/08/06 04:57:38;;;;;;;18.45;7.82;;;26.90;65.90;;;;;;4244115;28;20040;-61
2021/08/06 04:59:40;;;;;;;18.92;8.73;;;26.90;65.50;;;;;;4242717;28;20048;-62
2021/08/06 05:01:42;;;;;;;13.23;7.47;;;26.90;65.20;;;;;;4228391;28;20079;-64
2021/08/06 05:03:44;;;;;;;18.67;7.50;;;27.00;64.90;;;;;;4228376;28;20059;-64
2021/08/06 05:05:46;;;;;;;17.73;8.18;;;27.00;64.80;;;;;;4227657;28;20045;-64
2021/08/06 05:07:53;;;;;;;14.43;7.70;;;27.00;64.80;;;;;;4229318;28;20082;-63
2021/08/06 05:09:56;;;;;;;15.13;6.15;;;27.00;64.80;;;;;;4244106;28;20103;-64
2021/08/06 05:11:58;;;;;;;16.38;7.68;;;27.10;64.40;;;;;;4245337;28;20048;-62
2021/08/06 05:14:00;;;;;;;13.77;7.75;;;27.00;64.70;;;;;;4246162;28;20524;-62
2021/08/06 05:16:04;;;;;;;11.88;8.35;;;27.00;64.50;;;;;;4245951;28;20755;-64
2021/08/06 05:18:06;;;;;;;19.08;7.35;;;27.00;64.60;;;;;;4245644;28;20050;-64
2021/08/06 05:20:09;;;;;;;25.15;13.25;;;27.00;64.70;;;;;;4245537;28;20044;-62
2021/08/06 05:22:11;;;;;;;195.85;155.80;;;26.90;64.40;;;;;;4243194;28;20056;-63
2021/08/06 05:24:13;;;;;;;128.95;106.85;;;26.80;64.50;;;;;;4234006;28;20048;-60
2021/08/06 05:26:15;;;;;;;91.22;72.53;;;26.80;65.10;;;;;;4234202;28;20050;-65
2021/08/06 05:28:17;;;;;;;61.85;47.00;;;26.90;64.80;;;;;;4233943;28;20048;-68
2021/08/06 05:30:22;;;;;;;55.15;39.75;;;26.90;64.50;;;;;;4233856;28;20051;-67
2021/08/06 05:32:24;;;;;;;42.70;31.42;;;27.00;64.40;;;;;;4233708;28;20054;-68
2021/08/06 05:34:26;;;;;;;32.85;24.77;;;26.90;63.90;;;;;;4233926;28;20051;-64
2021/08/06 05:36:28;;;;;;;36.85;26.23;;;27.00;64.00;;;;;;4232746;28;20040;-67
2021/08/06 05:38:30;;;;;;;26.05;19.83;;;27.00;64.00;;;;;;4234486;28;20054;-63
2021/08/06 05:40:33;;;;;;;22.60;17.45;;;27.00;63.80;;;;;;4234342;28;20040;-65
2021/08/06 05:42:35;;;;;;;21.13;13.65;;;27.00;63.80;;;;;;4233993;28;20097;-65
2021/08/06 05:44:36;;;;;;;21.10;12.70;;;27.00;63.70;;;;;;4231956;28;20049;-66
2021/08/06 05:46:38;;;;;;;25.60;13.02;;;27.00;63.70;;;;;;4228827;28;20052;-60
2021/08/06 05:48:41;;;;;;;18.00;11.73;;;27.00;63.80;;;;;;4233101;28;20044;-60
2021/08/06 05:50:43;;;;;;;39.25;27.33;;;27.00;63.80;;;;;;4233633;28;20052;-60
2021/08/06 05:52:46;;;;;;;27.70;17.33;;;27.00;63.80;;;;;;4233119;28;20058;-64
2021/08/06 05:54:48;;;;;;;28.48;15.30;;;27.00;63.80;;;;;;4231277;28;20745;-62
2021/08/06 05:56:50;;;;;;;26.83;14.27;;;27.00;63.90;;;;;;4233780;28;20074;-62
2021/08/06 05:58:52;;;;;;;19.48;13.65;;;27.00;63.90;;;;;;4233340;28;20071;-62
2021/08/06 06:00:54;;;;;;;22.55;12.80;;;27.00;64.10;;;;;;4234018;28;20039;-57
2021/08/06 06:02:56;;;;;;;21.75;12.65;;;27.00;64.10;;;;;;4234437;28;20044;-57
2021/08/06 06:04:58;;;;;;;22.13;13.73;;;27.00;64.30;;;;;;4234622;28;20077;-58
2021/08/06 06:07:00;;;;;;;16.85;11.27;;;27.00;64.20;;;;;;4234616;28;20052;-58
2021/08/06 06:09:02;;;;;;;15.38;10.23;;;27.00;64.30;;;;;;4238963;28;20044;-58
2021/08/06 06:11:04;;;;;;;11.95;9.60;;;26.90;64.50;;;;;;4240266;28;20043;-58
2021/08/06 06:13:07;;;;;;;14.98;9.32;;;27.00;64.60;;;;;;4233652;28;20044;-61
2021/08/06 06:15:10;;;;;;;13.77;9.40;;;26.90;64.80;;;;;;4225570;28;20044;-60
2021/08/06 06:17:12;;;;;;;15.95;9.32;;;27.00;64.70;;;;;;4216534;28;20066;-60
2021/08/06 06:19:16;;;;;;;13.55;8.77;;;27.00;64.70;;;;;;4223169;28;20044;-59
2021/08/06 06:21:17;;;;;;;16.05;9.68;;;27.10;64.80;;;;;;4233157;28;20075;-60
2021/08/06 06:23:20;;;;;;;13.90;9.30;;;27.10;64.80;;;;;;4233235;28;20395;-59
2021/08/06 06:25:22;;;;;;;14.13;9.00;;;27.10;64.90;;;;;;4233312;28;20044;-60
2021/08/06 06:27:24;;;;;;;12.73;8.57;;;27.10;64.90;;;;;;4233687;28;20044;-57
2021/08/06 06:29:26;;;;;;;10.85;8.10;;;27.10;65.10;;;;;;4232805;28;20052;-65
2021/08/06 06:31:28;;;;;;;14.35;8.57;;;27.10;65.20;;;;;;4232739;28;20054;-65
2021/08/06 06:33:30;;;;;;;10.90;8.38;;;27.10;65.00;;;;;;4233023;28;20047;-65
2021/08/06 06:35:34;;;;;;;10.43;8.80;;;27.10;64.90;;;;;;4232135;28;20052;-64
2021/08/06 06:37:35;;;;;;;11.75;7.22;;;27.10;65.20;;;;;;4233165;28;20075;-62
2021/08/06 06:39:38;;;;;;;13.45;7.88;;;27.10;65.20;;;;;;4232704;28;20048;-70
2021/08/06 06:41:40;;;;;;;38.63;29.45;;;27.10;65.20;;;;;;4232551;28;20081;-70
2021/08/06 06:43:41;;;;;;;57.17;44.85;;;27.10;65.20;;;;;;4233027;28;20098;-67
2021/08/06 06:45:43;;;;;;;43.63;31.23;;;27.10;65.20;;;;;;4232790;28;20078;-67
2021/08/06 06:47:48;;;;;;;44.67;32.40;;;27.20;65.20;;;;;;4232990;28;20048;-66
2021/08/06 06:49:51;;;;;;;31.90;24.55;;;27.20;65.10;;;;;;4232852;28;20048;-65
2021/08/06 06:51:53;;;;;;;32.92;23.10;;;27.20;65.00;;;;;;4232416;28;20048;-66
2021/08/06 06:53:55;;;;;;;30.98;22.05;;;27.20;65.00;;;;;;4232552;28;20046;-65
2021/08/06 06:55:57;;;;;;;26.05;18.13;;;27.20;65.00;;;;;;4233463;28;20044;-65
2021/08/06 06:57:59;;;;;;;23.25;16.40;;;27.20;65.00;;;;;;4238771;28;20048;-60
2021/08/06 07:00:01;;;;;;;28.15;16.48;;;27.20;65.10;;;;;;4215624;28;20048;-60
2021/08/06 07:02:04;;;;;;;20.80;14.25;;;27.20;65.00;;;;;;4231273;28;20066;-61
2021/08/06 07:04:06;;;;;;;21.40;14.45;;;27.20;65.10;;;;;;4232623;28;20124;-57
2021/08/06 07:06:09;;;;;;;36.30;29.10;;;27.20;65.20;;;;;;4233519;28;20052;-57
2021/08/06 07:08:11;;;;;;;52.28;43.40;;;27.10;65.50;;;;;;4233602;28;20052;-58
2021/08/06 07:10:14;;;;;;;30.75;22.33;;;27.10;65.80;;;;;;4233549;28;20048;-58
2021/08/06 07:12:16;;;;;;;31.58;21.50;;;27.10;66.10;;;;;;4233434;28;20044;-61
2021/08/06 07:14:19;;;;;;;25.45;19.25;;;27.00;66.20;;;;;;4232733;28;20050;-60
2021/08/06 07:16:21;;;;;;;24.50;18.98;;;27.00;66.30;;;;;;4232743;28;20487;-61
2021/08/06 07:18:26;;;;;;;27.80;18.10;;;27.00;66.30;;;;;;4231777;28;20044;-58
2021/08/06 07:20:28;;;;;;;23.52;16.27;;;27.10;66.40;;;;;;4232064;28;20111;-57
2021/08/06 07:22:31;;;;;;;27.27;17.48;;;27.10;66.10;;;;;;4198035;28;20057;-56
2021/08/06 07:24:33;;;;;;;23.80;18.15;;;27.10;66.00;;;;;;4232350;28;20086;-58
2021/08/06 07:26:35;;;;;;;23.50;15.82;;;27.10;66.20;;;;;;4231719;28;20059;-58
2021/08/06 07:28:38;;;;;;;19.90;16.63;;;27.20;66.10;;;;;;4232659;28;20074;-57
2021/08/06 07:30:40;;;;;;;22.92;16.90;;;27.10;66.20;;;;;;4230806;28;20063;-59
2021/08/06 07:32:43;;;;;;;20.55;15.63;;;27.10;66.30;;;;;;4214229;28;20056;-64
2021/08/06 07:34:45;;;;;;;27.02;20.15;;;27.10;66.20;;;;;;4213981;28;20049;-60
2021/08/06 07:36:48;;;;;;;68.82;57.50;;;27.20;66.10;;;;;;4215488;28;20044;-60
2021/08/06 07:38:51;;;;;;;91.70;79.68;;;27.10;66.10;;;;;;4216320;28;20081;-59
2021/08/06 07:40:55;;;;;;;58.97;50.90;;;27.00;65.70;;;;;;4213946;28;20048;-60
2021/08/06 07:42:57;;;;;;;49.30;42.33;;;27.00;65.80;;;;;;4232180;28;20574;-62
2021/08/06 07:44:59;;;;;;;43.80;33.67;;;26.90;66.10;;;;;;4231794;28;20051;-61
2021/08/06 07:47:03;;;;;;;39.03;23.75;;;26.90;65.80;;;;;;4231112;28;20063;-59
2021/08/06 07:49:05;;;;;;;29.08;20.50;;;26.90;65.60;;;;;;4231807;28;20071;-58
2021/08/06 07:51:08;;;;;;;22.73;17.85;;;26.90;66.00;;;;;;4233065;28;20113;-62
2021/08/06 07:53:10;;;;;;;30.38;21.70;;;26.90;66.00;;;;;;4218312;28;20078;-61
2021/08/06 07:55:35;;;;;;;24.80;16.30;;;26.90;66.00;;;;;;4216188;28;20051;-59
2021/08/06 07:57:56;;;;;;;24.35;16.38;;;26.90;66.00;;;;;;4213470;28;20059;-61
2021/08/06 07:59:58;;;;;;;20.08;15.13;;;26.90;66.50;;;;;;4215318;28;20050;-60
2021/08/06 08:02:01;;;;;;;23.90;15.25;;;26.90;66.50;;;;;;4215264;28;20056;-60
2021/08/06 08:04:03;;;;;;;19.05;13.98;;;26.90;66.30;;;;;;4216087;28;20062;-61
2021/08/06 08:06:06;;;;;;;19.90;12.65;;;27.00;66.10;;;;;;4198787;28;20083;-60
2021/08/06 08:08:08;;;;;;;16.77;13.45;;;27.00;66.00;;;;;;4215119;28;20078;-61
2021/08/06 08:10:11;;;;;;;18.98;11.88;;;27.00;66.00;;;;;;4249058;28;20048;-61
2021/08/06 08:12:13;;;;;;;17.27;11.80;;;27.10;66.00;;;;;;4215896;28;20112;-60
2021/08/06 08:14:16;;;;;;;16.38;11.43;;;27.00;66.10;;;;;;4215959;28;20053;-60
2021/08/06 08:16:18;;;;;;;14.48;9.88;;;27.00;66.10;;;;;;4248661;28;20048;-60
2021/08/06 08:18:21;;;;;;;15.80;11.48;;;27.00;66.00;;;;;;4231767;28;20078;-60
2021/08/06 08:20:23;;;;;;;20.52;11.40;;;27.00;65.90;;;;;;4214953;28;20074;-60
2021/08/06 08:22:26;;;;;;;25.50;15.00;;;27.10;66.10;;;;;;4230105;28;20111;-61
2021/08/06 08:24:29;;;;;;;63.72;46.53;;;27.00;66.10;;;;;;4231878;28;20074;-64
2021/08/06 08:26:31;;;;;;;56.08;44.13;;;27.00;66.00;;;;;;4231701;28;20054;-63
2021/08/06 08:28:34;;;;;;;47.50;38.35;;;26.90;66.00;;;;;;4230681;28;20246;-64
2021/08/06 08:30:37;;;;;;;44.38;34.63;;;26.90;65.90;;;;;;4219247;28;20482;-63
2021/08/06 08:32:39;;;;;;;30.63;24.40;;;26.90;65.50;;;;;;4247266;28;20059;-64
2021/08/06 08:34:42;;;;;;;36.45;25.48;;;26.80;66.20;;;;;;4226672;28;20047;-63
2021/08/06 08:36:45;;;;;;;31.10;22.02;;;26.80;65.80;;;;;;4230582;28;20592;-63
2021/08/06 08:38:48;;;;;;;25.38;20.35;;;26.80;65.60;;;;;;4231000;28;20054;-63
2021/08/06 08:40:51;;;;;;;23.00;18.05;;;26.80;65.60;;;;;;4230482;28;20063;-64
2021/08/06 08:42:54;;;;;;;23.08;17.45;;;26.80;65.70;;;;;;4213721;28;20563;-63
2021/08/06 08:45:01;;;;;;;22.50;15.77;;;26.80;65.50;;;;;;4213792;28;20052;-64
2021/08/06 08:47:06;;;;;;;23.67;15.23;;;26.80;65.40;;;;;;4229494;28;20052;-63
2021/08/06 08:49:09;;;;;;;22.42;16.23;;;26.80;65.20;;;;;;4231076;28;20087;-63
2021/08/06 08:51:13;;;;;;;18.83;13.63;;;26.80;65.70;;;;;;4231441;28;20048;-63
2021/08/06 08:53:15;;;;;;;19.33;12.90;;;26.90;65.00;;;;;;4231197;28;20048;-63
2021/08/06 08:55:17;;;;;;;20.38;14.05;;;26.80;65.00;;;;;;4230887;28;20044;-63
2021/08/06 08:57:22;;;;;;;16.80;10.52;;;26.80;65.60;;;;;;4230202;28;20044;-63
2021/08/06 08:59:24;;;;;;;15.73;10.93;;;26.80;64.80;;;;;;4216388;28;20052;-64
2021/08/06 09:01:27;;;;;;;13.43;11.30;;;26.80;65.30;;;;;;4234677;28;20079;-64
2021/08/06 09:03:46;;;;;;;20.00;11.48;;;26.90;65.10;;;;;;4233050;28;20063;-63
2021/08/06 09:05:51;;;;;;;18.45;11.27;;;26.90;65.00;;;;;;4233750;28;20056;-64
2021/08/06 09:07:55;;;;;;;12.20;10.48;;;26.90;65.10;;;;;;4233841;28;20082;-63
2021/08/06 09:10:12;;;;;;;16.05;10.80;;;26.90;65.00;;;;;;4216779;28;20052;-64
2021/08/06 09:12:15;;;;;;;14.80;11.15;;;26.90;64.70;;;;;;4234355;28;20051;-64
2021/08/06 09:14:28;;;;;;;15.38;10.20;;;26.90;64.90;;;;;;4200183;28;20045;-64
2021/08/06 09:16:31;;;;;;;14.20;9.70;;;26.90;64.50;;;;;;4233170;28;20056;-64
2021/08/06 09:18:38;;;;;;;15.35;10.55;;;26.90;64.60;;;;;;4233430;28;20040;-63
2021/08/06 09:20:41;;;;;;;43.55;10.90;;;26.90;65.20;;;;;;4233135;28;20054;-62
2021/08/06 09:22:43;;;;;;;22.92;10.75;;;26.90;65.40;;;;;;4233021;28;20052;-61
2021/08/06 09:25:02;;;;;;;19.23;10.13;;;27.00;65.10;;;;;;4234027;28;20044;-61
2021/08/06 09:27:17;;;;;;;27.10;10.85;;;27.10;64.80;;;;;;4216381;28;20044;-62
2021/08/06 09:29:22;;;;;;;21.98;12.38;;;27.20;64.60;;;;;;4183838;28;20041;-62
2021/08/06 09:31:25;;;;;;;24.48;11.98;;;27.20;64.50;;;;;;4200185;28;20049;-57
2021/08/06 09:33:32;;;;;;;22.20;9.85;;;27.20;65.80;;;;;;4215878;28;20045;-58
2021/08/06 09:35:35;;;;;;;29.15;11.65;;;27.20;65.60;;;;;;4222391;28;20044;-57
2021/08/06 09:37:38;;;;;;;20.67;10.90;;;27.20;65.80;;;;;;4233858;28;20051;-58
2021/08/06 09:39:47;;;;;;;16.45;8.98;;;27.10;65.90;;;;;;4233015;28;20059;-58
2021/08/06 09:41:49;;;;;;;26.02;8.65;;;27.10;65.10;;;;;;4233495;28;20052;-58
2021/08/06 09:44:13;;;;;;;31.52;13.15;;;27.10;65.50;;;;;;4249945;28;20051;-61
2021/08/06 09:46:28;;;;;;;17.02;10.43;;;27.10;65.90;;;;;;4228643;28;20075;-58
2021/08/06 09:48:31;;;;;;;29.02;10.02;;;27.10;65.50;;;;;;4233669;28;20052;-58
2021/08/06 09:50:36;;;;;;;16.83;9.55;;;27.10;65.50;;;;;;4234349;28;20103;-57
2021/08/06 09:52:51;;;;;;;22.88;9.40;;;27.20;65.70;;;;;;4233554;28;20078;-57
2021/08/06 09:54:53;;;;;;;;;;;27.10;65.40;;;;;;4232242;28;20044;-56
2021/08/06 09:57:28;;;;;;;93.15;75.05;;;27.10;64.70;;;;;;4233557;28;19920;-57
2021/08/06 09:59:32;;;;;;;69.43;56.47;;;27.10;64.10;;;;;;4233545;28;20048;-58
2021/08/06 10:01:34;;;;;;;45.47;37.22;;;27.00;63.90;;;;;;4232963;28;20044;-57
2021/08/06 10:03:38;;;;;;;40.90;30.38;;;27.10;64.20;;;;;;4233888;28;20048;-58
2021/08/06 10:05:40;;;;;;;33.70;24.88;;;27.10;63.80;;;;;;4232694;28;20044;-56
2021/08/06 10:07:45;;;;;;;36.10;25.38;;;27.00;63.80;;;;;;4233371;28;20077;-53
2021/08/06 10:09:47;;;;;;;33.92;24.48;;;27.10;64.10;;;;;;4234145;28;20054;-56
2021/08/06 10:11:50;;;;;;;26.30;18.10;;;27.10;64.30;;;;;;4234445;28;20043;-54
2021/08/06 10:13:52;;;;;;;29.08;18.73;;;27.10;63.90;;;;;;4234405;28;20050;-56
2021/08/06 10:15:55;;;;;;;25.90;18.17;;;27.00;64.10;;;;;;4234433;28;20044;-55
2021/08/06 10:17:58;;;;;;;20.63;14.07;;;27.00;64.50;;;;;;4234461;28;20070;-51
2021/08/06 10:20:00;;;;;;;22.70;13.85;;;27.00;64.00;;;;;;4234351;28;20040;-56
2021/08/06 10:22:03;;;;;;;16.48;11.60;;;27.10;64.40;;;;;;4233987;28;20066;-53
2021/08/06 10:24:06;;;;;;;16.33;11.90;;;27.00;64.10;;;;;;4234093;28;20055;-54
2021/08/06 10:26:09;;;;;;;19.05;12.52;;;27.10;64.10;;;;;;4233351;28;20044;-55
2021/08/06 10:28:12;;;;;;;13.63;10.05;;;27.10;64.20;;;;;;4233320;28;20070;-55
2021/08/06 10:30:26;;;;;;;15.48;8.80;;;27.10;63.20;;;;;;4233949;28;20052;-56
2021/08/06 10:32:30;;;;;;;16.58;10.48;;;27.10;63.20;;;;;;4232808;28;20052;-56
2021/08/06 10:34:32;;;;;;;15.98;9.88;;;27.10;63.50;;;;;;4232126;28;20052;-56
2021/08/06 10:36:51;;;;;;;11.13;8.55;;;27.10;63.70;;;;;;4232775;28;20044;-55
2021/08/06 10:38:53;;;;;;;14.77;9.90;;;27.10;63.50;;;;;;4232104;28;20044;-61
2021/08/06 10:40:56;;;;;;;14.75;9.55;;;27.10;63.90;;;;;;4231951;28;20044;-60
2021/08/06 10:42:59;;;;;;;18.65;8.65;;;27.20;63.80;;;;;;4231899;28;20044;-60